Date,TemperatureHighF,TemperatureAvgF,TemperatureLowF,DewpointHighF,DewpointAvgF,DewpointLowF,HumidityHigh,HumidityAvg,HumidityLow,PressureMaxIn,PressureMinIn,WindSpeedMaxMPH,WindSpeedAvgMPH,GustSpeedMaxMPH,PrecipitationSumIn
2013-1-1,32.0,28.5,20.7,29.5,24.5,13.5,91,85,72,30.05,29.95,9,2,10,0.00
2013-1-2,27.5,20.1,11.9,19.1,13.1,7.1,82,74,61,30.19,30.03,7,1,8,0.00
2013-1-3,33.3,20.1,5.6,22.7,13.2,1.4,86,75,58,30.17,30.08,10,2,13,0.00
2013-1-4,33.5,29.0,26.3,22.8,20.7,18.3,77,71,59,30.21,30.10,12,4,16,0.01
2013-1-5,37.8,30.4,25.4,26.3,22.2,17.7,78,72,61,30.34,30.10,9,1,9,0.03
2013-1-6,38.9,34.7,32.4,31.2,28.1,24.8,89,77,69,30.17,29.94,7,2,9,0.00
2013-1-7,37.4,31.1,21.4,30.3,25.3,17.7,86,79,67,30.41,30.18,8,1,10,0.00
2013-1-8,43.2,27.6,16.4,31.2,22.0,13.1,89,80,61,30.32,30.22,2,0,3,0.00
2013-1-9,46.8,35.7,23.9,39.4,30.3,21.4,92,81,67,30.44,30.17,8,1,10,0.04
2013-1-10,41.4,34.3,25.4,32.3,27.8,22.8,92,77,66,30.57,30.25,3,0,3,0.00
2013-1-11,50.0,42.7,37.6,48.3,37.7,28.0,95,83,63,30.25,29.91,4,0,6,0.42
2013-1-12,59.4,52.7,46.4,57.5,50.9,44.8,96,94,87,30.05,29.92,3,1,4,0.00
2013-1-13,67.0,60.3,55.8,57.4,54.5,51.7,92,81,70,29.91,29.81,8,2,8,0.00
2013-1-14,56.9,36.3,27.9,54.3,29.5,21.8,92,77,62,30.34,29.85,14,2,17,0.00
2013-1-15,34.6,28.8,21.4,24.6,21.9,18.1,89,76,62,30.34,30.04,3,0,4,0.00
2013-1-16,35.3,32.1,30.4,31.9,28.5,23.6,91,86,71,30.05,29.86,4,1,7,0.01
2013-1-17,36.4,33.1,30.6,30.0,27.4,23.0,84,79,68,30.15,29.98,9,1,10,0.01
2013-1-18,33.5,26.0,16.2,23.0,15.9,8.4,87,66,53,30.44,30.13,12,3,12,0.00
2013-1-19,51.8,41.4,30.1,26.7,22.9,18.9,64,49,32,30.18,29.78,9,3,10,0.00
2013-1-20,45.4,33.2,22.1,31.5,18.3,11.4,65,54,45,30.11,29.72,16,4,18,0.00
2013-1-21,25.2,20.2,11.5,18.6,11.8,2.3,80,70,61,30.08,29.87,10,2,14,0.00
2013-1-22,12.2,8.4,4.7,3.6,-0.2,-3.3,78,68,52,30.21,30.01,13,3,15,0.00
2013-1-23,17.8,10.8,3.8,7.6,2.5,-2.2,78,69,55,30.23,30.02,9,1,9,0.00
2013-1-24,22.3,14.1,6.7,11.0,4.5,-2.0,86,67,35,30.49,30.02,11,2,11,0.00
2013-1-25,20.2,14.3,7.2,13.7,8.0,0.0,84,76,70,30.46,29.98,2,0,3,0.00
2013-1-26,29.2,21.9,11.7,22.5,15.6,7.1,86,77,58,30.40,30.04,8,1,10,0.00
2013-1-27,33.8,21.2,7.2,22.2,13.9,3.1,86,74,58,30.49,30.26,4,0,4,0.00
2013-1-28,48.4,38.7,28.8,47.1,36.2,22.1,95,90,73,30.26,29.97,5,1,6,0.00
2013-1-29,59.8,53.3,47.3,54.9,50.0,45.7,96,89,79,30.03,29.77,5,1,7,0.00
2013-1-30,65.2,56.4,49.7,56.7,51.4,45.0,94,84,70,29.77,29.21,14,3,14,0.00
2013-1-31,49.7,28.2,22.1,45.0,20.6,12.8,88,73,57,29.81,29.24,20,6,20,0.00
2013-2-1,22.0,16.8,11.9,13.7,7.5,4.0,75,66,56,30.27,29.80,13,4,14,0.00
2013-2-2,25.4,18.1,9.7,19.4,12.6,3.5,87,79,70,30.25,29.92,5,1,8,0.00
2013-2-3,26.3,22.3,18.0,20.8,16.6,11.9,88,79,63,29.97,29.80,8,2,11,0.00
2013-2-4,29.2,22.6,17.1,22.5,17.0,11.0,88,79,70,30.02,29.83,9,1,10,0.00
2013-2-5,31.3,27.3,24.3,27.3,23.6,21.2,91,86,76,29.90,29.79,5,0,5,0.00
2013-2-6,32.8,26.2,16.0,25.2,19.3,10.4,88,76,51,30.29,29.90,9,2,10,0.00
2013-2-7,43.7,29.8,16.2,29.5,21.7,10.8,80,72,57,30.26,29.93,3,0,5,0.00
2013-2-8,37.1,30.8,25.0,34.7,26.4,19.0,92,83,77,30.13,29.78,13,2,17,0.00
2013-2-9,32.8,24.5,17.3,20.4,16.7,12.2,83,73,50,30.35,30.13,8,1,8,0.00
2013-2-10,47.7,32.4,16.2,28.4,20.3,11.6,85,64,40,30.30,29.92,8,1,9,0.00
2013-2-11,59.9,44.4,35.6,46.1,34.3,23.8,93,70,36,29.92,29.64,18,4,18,0.00
2013-2-12,41.8,33.4,24.7,26.9,23.2,19.7,85,66,53,30.05,29.89,12,3,15,0.00
2013-2-13,39.2,29.6,20.9,29.0,24.0,17.6,91,80,65,29.89,29.66,3,0,3,0.00
2013-2-14,40.0,33.2,23.8,34.6,28.9,19.9,91,84,77,29.91,29.82,7,2,7,0.00
2013-2-15,40.3,34.1,25.7,34.1,26.2,21.2,91,73,51,30.04,29.87,8,2,10,0.00
2013-2-16,29.9,24.2,17.8,21.4,16.9,9.7,87,74,48,30.02,29.88,6,1,6,0.00
2013-2-17,23.8,18.7,10.4,17.8,10.6,1.8,89,72,48,30.20,29.88,10,3,13,0.00
2013-2-18,40.5,21.9,3.8,28.4,11.1,-1.3,83,65,47,30.23,29.86,8,1,8,0.00
2013-2-19,42.1,31.6,22.1,38.3,25.1,15.8,90,77,59,29.91,29.64,12,6,15,0.00
2013-2-20,24.5,20.0,17.3,17.6,11.4,8.2,84,69,56,30.16,29.91,13,5,15,0.00
2013-2-21,24.8,20.8,17.1,17.2,13.8,10.8,85,74,65,30.30,30.13,7,2,7,0.00
2013-2-22,34.7,28.9,18.7,32.1,24.6,13.8,92,84,70,30.23,29.96,4,1,6,0.00
2013-2-23,41.4,35.1,30.1,36.6,31.4,24.9,93,86,74,29.97,29.84,3,0,3,0.00
2013-2-24,31.7,29.1,25.6,25.0,22.6,19.7,89,77,64,30.10,29.84,8,2,9,0.00
2013-2-25,43.7,30.8,19.8,27.6,22.4,16.7,90,72,49,30.19,30.03,4,0,4,0.00
2013-2-26,40.1,33.7,28.8,33.7,27.8,21.1,94,80,58,30.04,29.56,9,1,9,0.00
2013-2-27,43.7,37.5,33.3,39.2,34.9,31.1,94,90,78,29.65,29.53,6,2,7,0.00
2013-2-28,34.9,33.0,31.0,31.7,30.2,28.5,93,89,84,29.79,29.59,6,2,6,0.00
2013-3-1,31.0,28.6,24.8,29.2,24.1,20.0,93,83,75,29.95,29.79,6,2,6,0.00
2013-3-2,29.5,25.7,23.4,22.2,20.7,18.5,87,81,67,29.93,29.88,5,2,7,0.00
2013-3-3,28.6,25.0,22.7,22.2,19.6,16.4,89,80,69,29.97,29.88,7,3,8,0.00
2013-3-4,37.6,27.4,21.2,23.7,18.3,14.6,83,69,52,30.07,29.96,8,2,9,0.00
2013-3-5,45.2,29.5,16.7,25.6,18.9,13.1,88,67,35,30.06,29.66,5,1,6,0.00
2013-3-6,43.9,36.4,31.7,33.0,28.4,24.5,92,74,54,30.08,29.66,5,0,5,0.00
2013-3-7,40.1,34.5,31.3,32.7,29.4,26.2,90,82,63,30.26,30.08,0,0,0,0.00
2013-3-8,37.8,32.0,26.1,29.4,26.4,21.9,87,80,67,30.37,30.26,0,0,0,0.00
2013-3-9,56.0,36.4,20.7,35.2,25.8,17.6,92,68,37,30.37,30.14,0,0,0,0.00
2013-3-10,72.2,53.7,37.3,39.9,31.4,24.9,62,44,28,30.14,29.96,9,2,11,0.00
2013-3-11,63.0,54.9,46.4,47.6,35.9,31.4,89,50,34,29.96,29.66,21,6,21,0.00
2013-3-12,46.4,38.8,34.6,43.1,33.0,26.4,91,80,70,29.96,29.74,15,6,22,0.00
2013-3-13,36.0,31.1,26.1,28.9,24.4,17.5,89,76,57,30.09,29.88,25,7,25,0.00
2013-3-14,38.9,29.5,23.6,21.3,18.4,15.3,81,65,44,30.16,30.08,27,8,27,0.00
2013-3-15,48.2,35.1,22.3,34.8,26.3,15.4,88,71,51,30.09,29.80,17,3,21,0.00
2013-3-16,38.5,34.3,30.6,36.0,31.5,27.5,93,90,85,29.94,29.63,9,1,9,0.00
2013-3-17,35.3,30.5,26.8,27.8,24.4,21.4,89,78,66,30.16,29.94,8,1,8,0.00
2013-3-18,36.5,32.4,27.0,34.9,28.8,21.3,94,87,73,30.13,29.66,15,2,15,0.00
2013-3-19,40.0,34.9,29.0,38.6,26.8,17.8,95,73,52,29.93,29.66,30,10,33,0.00
2013-3-20,36.5,30.0,25.4,24.3,18.2,15.5,75,62,49,29.92,29.81,20,7,26,0.00
2013-3-21,29.9,23.8,16.6,22.9,14.0,7.5,88,67,47,29.86,29.81,21,6,21,0.00
2013-3-22,33.8,27.5,22.5,22.6,20.2,16.0,87,74,59,29.99,29.86,19,6,21,0.00
2013-3-23,43.9,31.0,18.5,26.0,21.0,14.9,90,68,43,30.01,29.94,12,2,13,0.00
2013-3-24,45.7,33.9,23.8,28.9,22.4,17.9,84,64,40,29.99,29.51,12,2,14,0.00
2013-3-25,41.8,34.1,31.1,36.0,31.2,28.8,93,89,80,29.73,29.43,9,0,14,0.00
2013-3-26,40.5,35.0,31.3,32.6,30.6,28.5,93,84,71,30.04,29.73,21,4,21,0.00
2013-3-27,43.4,36.0,32.2,31.4,29.7,24.9,93,79,52,30.12,30.02,21,5,28,0.00
2013-3-28,42.8,37.7,33.1,31.9,30.0,28.4,90,74,61,30.23,30.09,14,5,17,0.00
2013-3-29,54.7,41.4,31.7,33.4,26.9,19.4,84,60,30,30.23,30.12,15,3,18,0.00
2013-3-30,59.0,35.0,23.0,29.4,21.7,17.6,82,62,27,30.22,30.00,8,1,14,0.00
2013-3-31,51.8,44.2,37.4,44.7,34.4,21.4,89,69,50,29.98,29.70,7,2,7,0.00
2013-4-1,45.2,39.5,32.2,41.7,25.9,11.4,89,61,30,29.99,29.67,17,8,17,0.00
2013-4-2,39.6,31.6,25.2,19.8,15.7,11.7,78,53,35,30.14,29.99,20,5,20,0.00
2013-4-3,37.1,30.7,23.8,20.6,13.8,10.3,71,51,33,30.37,30.13,16,5,16,0.00
2013-4-4,58.5,35.3,15.7,19.1,14.0,8.1,83,48,17,30.34,29.94,8,2,8,0.00
2013-4-5,52.6,39.0,26.3,29.6,21.3,15.0,75,50,33,30.15,29.90,17,3,17,0.00
2013-4-6,60.3,42.2,20.9,23.8,17.3,13.1,79,42,17,30.25,29.98,12,3,12,0.00
2013-4-7,75.1,60.6,49.5,44.1,36.1,20.1,64,41,31,29.99,29.85,26,8,27,0.00
2013-4-8,76.0,58.9,40.7,50.5,43.3,35.2,85,59,35,30.02,29.86,20,3,20,0.00
2013-4-9,81.5,67.9,53.8,56.0,50.6,43.3,76,55,38,30.08,29.89,15,4,18,0.00
2013-4-10,80.3,69.6,59.6,65.1,57.1,51.6,92,66,50,29.94,29.79,18,4,23,0.00
2013-4-11,58.9,55.5,53.3,52.4,50.2,48.8,86,82,79,29.84,29.76,6,2,9,0.00
2013-4-12,60.5,53.7,42.8,58.3,47.0,33.8,95,79,55,30.01,29.65,26,7,30,0.00
2013-4-13,49.3,43.5,39.1,36.5,33.6,28.4,79,69,53,30.18,30.00,20,6,28,0.00
2013-4-14,63.7,46.6,29.2,38.2,32.0,24.5,88,60,32,30.29,30.16,9,1,11,0.00
2013-4-15,69.7,59.7,52.0,49.8,44.3,35.7,66,57,46,30.24,30.11,20,6,23,0.00
2013-4-16,77.6,62.6,53.1,59.1,52.6,46.1,91,71,51,30.36,30.18,21,5,21,0.05
2013-4-17,72.5,59.2,48.4,52.9,48.2,43.7,94,70,40,30.41,30.23,8,2,9,0.00
2013-4-18,87.3,71.9,58.5,61.7,56.7,52.7,87,62,37,30.25,29.91,26,7,26,0.00
2013-4-19,71.3,59.2,42.1,60.6,48.3,31.1,88,68,55,30.01,29.65,28,10,30,0.00
2013-4-20,46.4,40.4,32.0,31.6,26.5,21.2,77,58,42,30.53,30.01,22,8,26,0.00
2013-4-21,58.0,39.4,23.8,27.6,22.8,19.1,88,55,28,30.72,30.53,9,1,9,0.00
2013-4-22,68.2,51.0,36.9,36.9,28.4,21.1,62,43,25,30.59,30.40,17,4,17,0.00
2013-4-23,75.4,55.2,36.9,41.0,34.2,27.7,76,48,25,30.41,30.09,15,3,15,0.00
2013-4-24,65.9,52.7,37.6,55.6,43.5,34.0,89,73,45,30.30,29.88,23,5,25,0.00
2013-4-25,60.7,44.0,31.1,39.6,33.5,28.3,90,70,33,30.47,30.29,18,4,23,0.00
2013-4-26,64.8,46.0,29.9,39.1,30.8,26.8,92,61,27,30.60,30.47,11,2,13,0.00
2013-4-27,77.8,55.7,33.1,38.8,33.2,27.6,84,48,22,30.52,30.28,11,2,12,0.00
2013-4-28,59.4,54.9,50.2,55.1,46.4,36.6,92,75,46,30.29,30.09,12,4,13,0.00
2013-4-29,65.5,56.8,50.8,59.9,52.9,47.3,92,87,79,30.17,30.07,8,2,9,0.00
2013-4-30,77.4,62.3,49.9,57.8,52.5,47.6,95,73,46,30.33,30.17,10,3,11,0.00
2013-5-1,84.6,64.4,51.3,54.2,48.2,36.5,88,60,33,30.45,30.33,13,3,14,0.00
2013-5-2,83.5,63.9,47.2,46.3,37.4,31.7,66,40,18,30.49,30.35,10,2,12,0.00
2013-5-3,81.2,63.5,46.3,46.4,40.1,34.8,69,45,26,30.39,30.30,16,4,21,0.00
2013-5-4,79.6,60.5,45.7,45.6,41.0,36.2,77,51,29,30.35,30.23,11,3,14,0.00
2013-5-5,82.1,61.3,45.4,43.6,35.5,23.8,79,44,13,30.29,30.16,15,3,15,0.00
2013-5-6,77.6,60.5,44.5,53.2,44.4,31.2,75,56,40,30.24,30.15,11,3,14,0.00
2013-5-7,78.8,63.6,54.7,56.4,52.7,49.7,86,69,44,30.19,30.11,8,1,11,0.00
2013-5-8,76.9,63.5,52.7,55.4,51.5,44.9,92,68,34,30.15,30.05,8,1,9,0.00
2013-5-9,82.4,63.9,50.9,56.6,50.2,38.7,89,65,26,30.14,30.06,6,0,7,0.00
2013-5-10,77.4,62.4,52.9,63.7,55.8,45.6,93,80,55,30.14,29.95,12,1,21,0.00
2013-5-11,60.5,55.4,50.2,58.5,50.8,45.4,94,85,73,29.99,29.92,10,0,10,0.00
2013-5-12,51.7,45.7,34.4,48.2,32.0,27.2,88,61,40,30.18,29.96,19,3,23,0.00
2013-5-13,54.2,42.4,31.9,32.7,27.0,22.1,85,58,30,30.30,30.17,9,1,9,0.00
2013-5-14,69.3,46.7,28.4,43.2,33.3,23.0,86,62,38,30.31,30.03,2,0,4,0.00
2013-5-15,88.2,66.1,47.7,65.4,52.3,37.2,84,63,37,30.03,29.88,22,1,22,0.00
2013-5-16,85.1,68.9,55.6,59.9,50.9,39.2,92,59,23,30.13,29.93,0,0,0,0.00
2013-5-17,86.4,64.1,44.8,61.4,50.4,40.2,87,64,34,30.27,30.13,0,0,0,0.00
2013-5-18,92.5,68.9,53.3,60.3,51.7,41.9,78,56,29,30.29,30.17,4,0,4,0.00
2013-5-19,81.5,68.9,56.9,64.8,60.0,54.0,92,75,55,30.26,30.13,5,0,5,0.00
2013-5-20,95.4,77.8,58.3,70.6,65.0,55.4,93,67,42,30.19,30.06,5,1,5,0.00
2013-5-21,93.2,76.4,63.9,71.1,65.2,60.7,92,71,42,30.12,29.99,10,1,10,0.00
2013-5-22,92.3,73.6,64.3,67.5,62.6,58.7,82,70,42,30.05,29.92,8,2,12,0.00
2013-5-23,77.0,65.9,47.3,64.7,59.9,44.9,91,82,56,30.07,29.92,6,1,10,0.00
2013-5-24,48.6,44.0,38.2,44.7,37.0,31.0,92,77,61,30.41,30.08,9,2,9,0.00
2013-5-25,64.1,47.1,32.9,40.3,33.7,28.5,90,63,32,30.45,30.36,9,1,9,0.00
2013-5-26,73.6,51.0,32.9,41.7,34.8,28.3,88,58,25,30.43,30.35,4,0,8,0.00
2013-5-27,65.0,52.3,36.0,51.5,41.8,31.3,90,69,46,30.41,30.23,2,0,4,0.00
2013-5-28,83.0,65.0,52.6,70.8,58.7,46.5,94,81,57,30.24,30.12,6,1,8,0.00
2013-5-29,89.1,75.0,64.8,67.8,62.0,57.6,85,66,45,30.24,30.14,9,2,9,0.00
2013-5-30,92.2,73.6,59.9,68.7,62.4,56.1,89,70,43,30.33,30.23,5,0,6,0.00
2013-5-31,93.4,75.0,60.8,68.3,62.7,58.0,92,69,39,30.27,30.14,13,1,18,0.00
2013-6-1,88.9,76.8,66.4,68.6,64.8,60.9,84,68,47,30.18,29.96,12,2,14,0.00
2013-6-2,82.8,73.8,67.0,65.7,61.5,56.7,88,67,44,30.04,29.94,9,2,10,0.00
2013-6-3,77.4,62.2,46.4,56.9,50.3,38.1,84,67,37,30.22,30.03,4,0,5,0.00
2013-6-4,81.0,58.0,39.1,51.0,43.6,34.7,91,63,34,30.31,30.22,3,0,7,0.00
2013-6-5,91.6,66.8,47.9,62.5,52.3,42.3,83,62,37,30.29,30.07,5,0,6,0.00
2013-6-6,69.5,65.9,63.4,65.7,61.6,56.3,93,86,69,30.09,29.93,4,0,4,0.00
2013-6-7,67.3,61.2,57.1,61.4,57.4,52.4,94,88,79,30.01,29.93,4,0,4,0.00
2013-6-8,80.5,63.4,55.1,60.5,54.9,50.9,90,75,45,30.26,30.01,3,0,4,0.00
2013-6-9,86.8,68.3,52.7,65.7,58.6,49.4,92,73,47,30.32,30.17,4,0,4,0.00
2013-6-10,79.0,69.2,63.0,70.1,65.0,60.7,94,87,71,30.17,29.93,4,0,5,0.00
2013-6-11,81.4,68.5,61.4,67.3,62.5,59.0,93,82,57,30.05,29.94,7,0,7,0.00
2013-6-12,83.5,71.3,59.9,70.9,64.5,57.5,93,80,53,30.07,29.91,4,0,4,0.00
2013-6-13,71.1,65.3,58.3,68.5,61.5,54.3,94,88,75,29.96,29.70,8,1,13,0.00
2013-6-14,83.0,63.3,52.7,62.4,55.5,50.1,93,78,41,30.21,29.96,0,0,0,0.00
2013-6-15,87.8,65.1,47.7,58.2,51.7,44.4,92,66,28,30.27,30.15,6,0,6,0.00
2013-6-16,83.3,68.0,61.4,70.7,62.5,56.7,91,83,61,30.16,30.05,8,1,8,0.00
2013-6-17,88.0,73.2,62.3,67.0,62.1,55.8,92,71,35,30.13,30.06,4,0,5,0.00
2013-6-18,88.9,70.7,59.8,68.0,60.6,53.4,90,72,47,30.13,30.01,4,0,4,0.00
2013-6-19,88.6,65.6,52.6,54.8,50.7,47.6,84,63,27,30.30,30.13,4,0,4,0.00
2013-6-20,92.5,66.5,48.6,59.6,51.9,44.3,91,64,30,30.37,30.30,4,0,4,0.00
2013-6-21,94.9,70.5,52.9,63.2,56.9,48.8,89,66,30,30.41,30.31,2,0,4,0.00
2013-6-22,94.1,73.8,56.9,71.2,63.5,53.2,90,72,45,30.35,30.22,4,0,5,0.00
2013-6-23,93.6,76.6,64.3,72.9,66.4,61.4,92,73,44,30.30,30.21,4,0,5,0.00
2013-6-24,96.1,77.5,63.2,69.6,65.2,60.1,92,69,38,30.29,30.16,7,1,8,0.00
2013-6-25,93.8,78.1,67.1,74.6,67.4,60.9,88,71,50,30.21,30.05,13,1,14,0.00
2013-6-26,78.7,72.6,68.2,71.2,67.7,65.0,90,85,78,30.00,29.97,1,0,1,0.00
2013-6-27,83.5,70.5,64.6,71.3,66.1,61.2,94,86,64,29.97,29.81,9,0,9,0.00
2013-6-28,85.5,69.9,62.1,70.8,64.2,59.5,93,83,55,29.82,29.66,5,0,7,0.00
2013-6-29,84.2,67.9,60.5,70.7,62.5,57.9,93,83,59,29.87,29.71,4,0,5,0.00
2013-6-30,79.6,68.2,58.9,72.2,63.7,56.3,94,86,69,30.02,29.85,2,0,3,0.00
2013-7-1,85.9,70.7,63.9,70.3,64.9,61.6,93,83,56,30.12,29.98,5,0,5,0.00
2013-7-2,91.4,74.3,64.3,73.4,66.9,61.9,93,79,51,30.22,30.07,4,0,6,0.00
2013-7-3,92.9,75.5,66.2,74.1,67.8,63.5,91,78,52,30.34,30.22,4,0,8,0.00
2013-7-4,98.3,76.9,68.0,75.4,69.1,65.0,92,78,46,30.37,30.28,3,0,5,0.00
2013-7-5,72.0,69.9,68.0,67.6,66.2,65.0,91,88,84,30.32,30.28,2,0,4,0.00
2013-7-7,87.5,78.2,69.8,71.3,67.7,64.5,84,71,55,30.26,30.16,4,0,4,0.00
2013-7-8,93.6,77.6,63.2,72.8,67.1,59.5,90,71,48,30.28,30.20,5,0,5,0.00
2013-7-9,90.2,73.9,67.1,78.5,69.2,63.6,92,86,65,30.25,30.11,8,0,9,0.00
2013-7-10,88.2,72.1,63.9,79.1,68.6,61.9,94,89,73,30.16,29.97,7,0,12,0.00
2013-7-11,85.7,69.8,58.7,66.7,61.9,54.0,94,78,44,30.16,30.06,4,0,5,0.00
2013-7-12,77.8,65.4,57.2,66.4,60.2,53.1,91,84,64,30.27,30.16,2,0,2,0.00
2013-7-13,90.4,72.1,59.2,73.0,64.1,56.5,92,77,51,30.38,30.25,4,0,4,0.00
2013-7-14,94.3,76.5,65.2,74.8,68.2,62.4,94,77,52,30.43,30.37,5,0,6,0.00
2013-7-15,100.1,78.7,65.9,75.9,69.5,63.2,93,75,43,30.49,30.40,4,0,4,0.00
2013-7-16,92.5,76.2,68.9,77.6,70.8,65.9,92,84,61,30.47,30.40,0,0,0,0.00
2013-7-17,92.0,79.1,70.2,80.0,73.5,67.8,93,84,63,30.45,30.31,0,0,0,0.00
2013-7-18,96.8,77.4,70.6,79.5,71.8,67.8,92,84,55,30.34,30.18,0,0,0,0.00
2013-7-19,94.0,80.1,70.0,75.4,71.7,66.6,91,77,51,30.19,30.03,8,1,8,0.00
2013-7-20,85.1,75.2,68.8,74.2,69.0,65.7,92,82,65,30.08,30.00,5,1,5,0.00
2013-7-21,89.6,75.2,67.0,72.8,68.1,63.9,91,80,54,30.13,30.07,3,0,3,0.00
2013-7-22,78.8,71.2,64.4,72.2,67.3,61.6,92,88,78,30.11,29.93,2,0,2,0.00
2013-7-23,84.6,70.9,64.1,70.8,65.8,61.2,94,85,62,29.95,29.86,4,0,4,0.00
2013-7-24,80.1,65.5,56.0,63.1,57.3,51.5,92,76,46,30.15,29.92,4,0,4,0.00
2013-7-25,84.2,61.2,50.0,59.3,52.3,47.4,92,75,42,30.24,30.15,3,0,3,0.00
2013-7-26,90.2,66.1,50.9,62.6,55.3,47.8,93,71,39,30.24,30.15,3,0,3,0.00
2013-7-27,80.6,68.7,57.4,68.0,62.9,53.6,91,82,65,30.15,30.00,4,0,7,0.00
2013-7-28,77.0,66.0,56.2,63.2,58.2,51.0,93,78,49,30.18,30.00,10,1,15,0.00
2013-7-29,74.9,62.1,51.8,58.5,53.2,48.3,89,74,53,30.34,30.18,0,0,0,0.00
2013-7-30,80.1,64.3,51.7,62.0,55.7,47.9,90,75,48,30.37,30.30,0,0,0,0.00
2013-7-31,78.1,66.3,55.4,66.1,60.3,51.9,90,82,61,30.31,30.11,0,0,0,0.00
2013-8-1,82.1,70.9,62.6,66.2,62.7,57.3,92,77,50,30.11,30.02,8,0,8,0.00
2013-8-2,75.6,66.5,56.5,62.1,57.6,52.7,90,74,52,30.15,30.06,5,0,5,0.00
2013-8-3,79.7,69.4,57.6,66.7,61.4,52.5,91,77,50,30.15,30.08,4,0,4,0.00
2013-8-4,76.1,63.6,53.5,59.9,55.0,49.3,91,75,52,30.25,30.14,4,0,4,0.00
2013-8-5,74.7,61.9,50.4,58.9,53.4,46.4,89,75,47,30.27,30.17,1,0,1,0.00
2013-8-6,82.3,65.9,53.6,61.7,56.0,50.1,89,73,42,30.18,30.12,0,0,0,0.00
2013-8-7,83.2,67.4,59.0,71.7,62.8,55.2,91,86,66,30.14,30.06,1,0,1,0.00
2013-8-8,84.1,72.6,65.2,75.5,68.3,62.5,93,87,73,30.13,30.06,0,0,0,0.00
2013-8-9,77.0,70.7,62.8,70.4,66.9,59.2,93,88,73,30.16,30.05,0,0,0,0.00
2013-8-10,82.3,68.9,59.6,67.5,61.8,56.7,92,79,57,30.25,30.17,0,0,0,0.00
2013-8-11,81.5,69.6,60.8,67.6,61.5,56.5,87,76,56,30.29,30.18,0,0,0,0.00
2013-8-12,82.3,70.0,59.0,67.8,62.7,55.5,90,79,58,30.21,30.03,3,0,3,0.00
2013-8-13,76.5,69.2,55.4,66.9,61.7,49.3,91,78,60,30.13,29.95,3,0,3,0.00
2013-8-14,71.1,58.5,50.4,57.4,51.0,46.3,87,77,57,30.29,30.12,1,0,1,0.00
2013-8-15,75.8,58.7,46.3,56.0,49.6,42.7,90,74,45,30.35,30.25,0,0,0,0.00
2013-8-16,80.3,64.3,53.5,58.8,54.1,49.3,87,72,45,30.32,30.27,0,0,0,0.00
2013-8-17,80.1,66.1,54.4,60.3,55.4,50.0,88,71,44,30.39,30.32,0,0,0,0.00
2013-8-18,72.5,65.5,59.4,64.5,59.7,54.8,88,82,73,30.37,30.29,0,0,0,0.00
2013-8-19,81.0,68.7,60.1,69.0,63.0,56.0,92,83,60,30.30,30.22,2,0,2,0.00
2013-8-20,83.7,67.5,55.3,67.2,59.5,51.8,91,77,48,30.34,30.25,2,0,2,0.00
2013-8-21,86.6,68.9,57.4,68.9,61.5,54.2,91,79,48,30.35,30.22,0,0,0,0.00
2013-8-22,82.6,72.4,64.4,70.7,65.6,60.2,90,80,63,30.24,30.12,5,0,7,0.00
2013-8-23,83.2,70.7,62.6,67.9,61.9,53.8,92,75,45,30.31,30.14,8,0,8,0.00
2013-8-24,83.0,66.3,55.3,61.7,55.6,51.1,87,71,41,30.45,30.31,3,0,3,0.00
2013-8-25,82.3,67.1,54.4,64.8,58.0,50.4,90,74,48,30.49,30.37,1,0,1,0.00
2013-8-26,85.5,71.0,58.0,67.5,61.4,54.1,88,73,50,30.40,30.17,5,1,7,0.00
2013-8-27,82.1,74.1,69.7,71.9,67.9,65.3,87,81,69,30.18,30.09,7,1,10,0.00
2013-8-28,79.7,72.6,68.6,74.4,69.5,65.8,93,90,83,30.10,29.98,4,0,4,0.00
2013-8-29,85.1,73.6,66.8,71.1,67.3,63.5,92,82,57,30.20,30.08,4,0,4,0.00
2013-8-30,85.7,72.7,62.3,73.2,65.8,59.2,91,80,61,30.17,29.99,4,0,4,0.00
2013-8-31,85.9,77.9,69.3,73.5,69.7,65.3,89,77,59,30.01,29.93,6,1,8,0.00
2013-9-1,77.2,72.1,68.4,71.3,68.4,65.0,91,88,81,30.00,29.93,3,0,3,0.00
2013-9-2,85.7,73.2,66.1,72.2,67.0,60.8,92,82,55,29.99,29.90,9,1,9,0.00
2013-9-3,69.1,63.3,56.7,58.8,56.5,52.2,90,79,64,30.19,29.99,8,1,11,0.00
2013-9-4,79.9,63.5,50.0,60.3,54.4,46.5,91,74,48,30.27,30.18,7,1,7,0.00
2013-9-5,75.1,63.7,50.0,57.3,53.3,44.1,87,70,44,30.36,30.20,15,1,15,0.00
2013-9-6,74.9,56.5,43.7,50.5,44.5,39.7,88,68,32,30.41,30.27,4,0,5,0.00
2013-9-7,79.0,56.4,44.1,63.2,46.9,39.9,88,73,40,30.27,30.13,7,0,7,0.00
2013-9-8,78.5,68.5,57.2,65.8,59.3,52.7,85,73,60,30.21,30.13,6,1,6,0.00
2013-9-9,76.7,63.4,53.6,70.1,59.2,50.0,91,86,75,30.24,30.16,4,0,4,0.00
2013-9-10,90.4,75.8,65.0,76.2,69.4,62.0,92,82,61,30.28,30.18,6,1,6,0.00
2013-9-11,84.6,75.6,70.6,74.4,70.0,66.2,89,83,66,30.29,30.16,7,1,9,0.00
2013-9-12,74.9,68.3,60.1,70.1,64.7,57.8,93,88,79,30.16,29.96,14,1,14,0.00
2013-9-13,61.7,57.6,54.4,58.8,54.7,44.1,99,91,63,30.17,29.98,8,1,9,0.00
2013-9-14,95.4,63.9,55.8,95.0,63.7,55.5,99,99,99,30.29,30.17,2,0,3,0.00
2013-9-15,70.0,65.3,57.1,56.5,52.6,50.4,85,64,50,30.31,30.21,2,0,2,0.00
2013-9-19,61.3,41.4,58.3,59.3,10.4,-99.9,96,66,93,29.92,29.90,0,-300,0,0.00
2013-9-20,75.6,61.3,57.6,69.3,55.3,-99.9,99,90,81,29.93,29.78,3,-43,0,0.00
2013-9-21,68.9,63.3,53.6,67.1,60.5,-99.9,99,94,91,29.86,29.69,5,-14,0,0.19
2013-9-22,59.7,54.7,50.4,54.2,49.8,44.9,99,85,61,30.08,29.86,5,1,0,0.01
2013-9-23,58.5,52.9,42.6,49.3,44.3,41.0,96,74,58,30.18,30.11,2,1,0,0.00
2013-9-24,73.0,52.2,38.1,52.2,44.3,37.6,99,78,40,30.12,29.94,4,1,0,0.00
2013-9-25,74.8,60.8,43.9,52.9,50.0,43.6,99,72,38,29.92,29.85,4,1,0,0.00
2013-9-26,77.4,58.3,44.6,55.6,49.9,44.3,99,78,38,30.05,29.92,5,0,0,0.00
2013-9-27,75.6,59.4,48.7,56.7,52.6,48.4,99,81,45,30.14,30.05,4,1,0,0.00
2013-9-28,75.9,59.4,47.5,57.8,52.4,47.2,99,80,49,30.19,30.08,3,1,0,0.00
2013-9-29,74.3,65.9,47.7,61.7,57.5,46.9,97,76,58,30.04,29.91,3,1,0,0.00
2013-9-30,71.1,61.3,52.2,61.2,57.2,51.8,99,87,69,29.96,29.89,4,0,0,0.00
2013-10-1,76.3,63.4,53.6,63.0,57.8,53.0,99,84,56,29.99,29.91,6,1,0,0.00
2013-10-2,80.6,65.6,53.8,66.3,60.0,53.2,99,84,55,30.01,29.94,5,1,0,0.00
2013-10-3,79.2,66.3,57.0,68.5,63.3,56.7,99,91,69,30.01,29.91,5,1,0,0.06
2013-10-4,81.1,69.0,62.6,69.3,65.4,62.3,99,89,64,30.00,29.92,5,1,0,0.01
2013-10-5,78.4,68.5,62.2,71.6,66.5,61.9,99,94,75,29.99,29.88,3,0,0,0.17
2013-10-6,82.8,71.5,64.2,70.2,65.2,59.8,99,83,55,29.89,29.64,6,1,0,0.05
2013-10-7,71.6,57.2,48.7,63.0,49.9,43.9,99,78,63,30.04,29.61,8,2,0,0.48
2013-10-8,68.0,53.5,40.8,50.3,45.8,40.1,99,78,46,30.21,30.04,5,1,0,0.00
2013-10-9,69.6,53.4,41.5,49.1,43.7,40.4,99,74,37,30.23,30.13,5,1,0,0.00
2013-10-10,70.9,55.2,43.5,50.2,43.9,38.6,94,69,31,30.13,29.97,3,0,0,0.00
2013-10-11,68.9,58.0,49.5,55.7,50.8,46.0,92,78,56,29.98,29.92,3,0,0,0.00
2013-10-12,74.5,63.8,55.0,61.8,54.9,43.4,87,73,62,30.03,29.94,4,1,0,0.00
2013-10-13,71.2,63.5,55.2,61.6,58.4,54.3,97,84,69,30.14,30.02,3,0,0,0.00
2013-10-14,66.2,59.2,53.6,59.0,55.3,50.4,99,88,66,30.19,30.09,4,1,0,0.04
2013-10-15,70.3,59.1,48.6,61.9,55.8,48.3,99,90,73,30.09,29.84,3,0,0,0.00
2013-10-16,63.3,59.7,57.0,61.8,58.5,55.6,99,96,89,29.84,29.69,4,2,0,0.62
2013-10-17,59.7,52.2,45.1,55.9,51.0,44.8,99,96,80,29.78,29.58,6,1,0,0.53
2013-10-18,61.5,50.2,41.5,47.8,43.9,40.3,99,82,47,29.87,29.74,7,2,0,0.00
2013-10-19,55.2,44.8,38.8,48.6,42.3,38.5,99,92,71,29.84,29.58,6,1,0,0.10
2013-10-20,60.4,46.2,37.8,42.5,39.3,37.3,99,79,49,29.90,29.79,9,2,0,0.00
2013-10-21,65.7,51.6,35.1,43.9,38.3,34.4,99,65,35,29.92,29.72,6,1,0,0.00
2013-10-22,54.5,45.3,36.7,48.4,36.5,27.6,98,74,42,29.84,29.71,9,2,0,0.05
2013-10-23,42.1,39.1,33.6,38.5,35.9,32.2,97,89,73,29.80,29.62,10,1,0,0.02
2013-10-24,44.2,37.4,32.2,34.5,31.4,27.2,94,80,53,30.01,29.79,8,3,0,0.00
2013-10-25,48.7,37.8,30.6,35.8,31.1,26.8,97,79,47,30.20,30.01,8,2,0,0.00
2013-10-26,46.9,34.1,29.8,30.3,28.9,27.3,98,82,49,30.11,29.90,7,2,0,0.00
2013-10-27,52.2,40.8,30.7,36.6,32.7,29.2,99,75,46,29.98,29.85,6,1,0,0.00
2013-10-28,59.5,41.9,26.2,38.3,31.7,24.7,99,72,35,30.19,29.98,4,1,0,0.00
2013-10-29,60.8,44.9,32.5,40.8,37.3,32.3,99,78,43,30.27,30.14,4,0,0,0.00
2013-10-30,68.2,51.9,38.3,51.8,43.6,37.2,97,76,43,30.13,29.98,4,1,0,0.00
2013-10-31,67.6,60.5,55.2,59.1,56.4,52.0,99,87,64,29.98,29.32,9,2,0,0.18
2013-11-1,68.4,57.7,51.6,59.4,47.7,41.6,92,70,51,29.58,29.20,12,4,0,0.17
2013-11-2,52.0,47.6,43.0,45.1,42.3,40.8,96,82,72,29.85,29.55,10,3,0,0.03
2013-11-3,48.7,38.5,27.1,39.6,31.7,23.2,99,78,46,30.35,29.85,6,2,0,0.00
2013-11-4,47.3,35.0,24.4,26.3,22.3,19.9,89,62,35,30.43,30.30,4,1,0,0.00
2013-11-5,62.4,45.9,36.1,35.4,30.7,25.1,76,56,36,30.39,30.21,4,1,0,0.00
2013-11-6,73.9,54.8,35.4,57.0,44.6,28.5,98,70,45,30.21,29.80,9,2,0,0.06
2013-11-7,56.7,44.3,38.8,56.4,38.3,25.6,99,80,56,30.00,29.76,11,5,0,0.57
2013-11-8,43.9,36.5,25.3,30.4,26.4,23.3,95,68,50,30.16,29.94,9,3,0,0.00
2013-11-9,57.4,41.8,24.1,31.0,26.6,22.9,99,61,29,30.15,29.79,9,2,0,0.00
2013-11-10,51.3,44.0,35.2,37.7,32.6,27.8,79,64,47,30.15,29.82,11,5,0,0.00
2013-11-11,48.2,39.1,29.5,37.3,30.3,27.4,98,73,47,30.14,29.89,7,2,0,0.00
2013-11-12,35.2,29.9,26.6,31.4,25.1,19.4,99,83,54,30.34,30.00,8,3,0,0.04
2013-11-13,37.0,29.4,22.6,25.6,21.8,19.2,96,75,49,30.40,30.21,7,3,0,0.02
2013-11-14,50.0,37.0,27.7,22.7,20.5,18.5,73,53,31,30.21,30.02,7,3,0,0.00
2013-11-15,56.8,43.1,28.4,33.5,25.1,19.6,70,51,26,30.08,29.98,7,1,0,0.00
2013-11-16,61.3,48.5,33.8,48.2,41.6,32.4,99,78,59,30.12,29.89,5,1,0,0.00
2013-11-17,59.0,55.4,51.6,58.4,53.1,46.6,98,92,70,29.89,29.38,10,3,0,0.96
2013-11-18,57.4,46.9,37.6,43.3,34.2,25.8,80,62,44,29.93,29.48,14,6,0,0.18
2013-11-19,38.8,33.8,23.4,26.0,24.1,21.5,93,68,53,30.28,29.94,8,3,0,0.00
2013-11-20,50.9,33.7,21.7,23.3,18.5,13.7,95,60,24,30.34,30.22,5,1,0,0.00
2013-11-21,54.1,41.4,30.4,38.2,28.3,15.7,73,60,46,30.29,30.10,3,0,0,0.00
2013-11-22,52.0,46.3,35.4,51.2,43.6,31.9,98,90,70,30.14,29.94,17,3,0,0.09
2013-11-23,36.0,28.7,18.9,31.4,22.4,8.4,97,78,53,30.20,30.01,12,5,0,0.00
2013-11-24,24.4,18.9,13.8,14.3,10.3,5.5,86,69,49,30.37,30.20,14,5,0,0.00
2013-11-25,34.2,24.2,12.9,27.9,11.8,8.0,91,62,37,30.35,30.05,6,2,0,0.00
2013-11-26,36.7,32.1,29.8,32.9,30.9,27.7,99,95,86,30.07,29.61,5,1,0,0.52
2013-11-27,31.8,27.3,21.2,30.7,24.8,17.7,97,90,79,29.97,29.58,11,5,0,0.01
2013-11-28,30.4,22.8,14.2,22.4,17.5,11.3,92,80,62,30.28,29.97,7,2,0,0.00
2013-11-29,35.8,24.7,14.7,24.0,20.2,13.3,96,84,59,30.51,30.27,5,1,0,0.06
2013-11-30,39.9,26.8,17.6,25.5,21.0,15.9,95,80,54,30.48,30.07,4,1,0,0.06
2013-12-1,42.1,34.5,23.0,30.0,28.1,22.0,97,78,61,30.07,29.80,5,1,0,0.16
2013-12-2,42.8,36.6,32.5,33.4,31.1,29.3,93,81,67,29.81,29.68,2,0,0,0.00
2013-12-3,54.7,40.3,32.7,41.7,35.7,30.4,97,85,60,29.77,29.70,4,0,0,0.01
2013-12-4,59.2,46.8,34.2,47.2,41.2,33.4,97,82,62,29.83,29.69,4,1,0,0.00
2013-12-5,60.4,53.7,36.5,57.1,49.1,34.2,96,85,71,29.94,29.68,7,3,0,0.33
2013-12-6,36.1,32.0,27.7,34.0,29.6,25.2,95,91,79,30.13,29.89,7,3,0,0.32
2013-12-7,30.9,24.5,12.4,25.4,18.2,9.8,91,77,58,30.43,30.11,7,3,0,0.00
2013-12-8,29.1,22.2,11.7,27.9,18.0,8.8,95,84,66,30.44,29.89,5,1,0,0.00
2013-12-9,35.6,32.7,29.1,35.1,29.2,22.1,98,87,72,29.96,29.78,10,3,0,0.16
2013-12-10,29.3,25.0,21.2,21.9,15.3,5.9,89,68,39,30.08,29.86,8,4,0,0.01
2013-12-11,29.5,22.1,15.6,20.7,13.8,10.1,87,70,55,30.19,30.05,9,4,0,0.00
2013-12-12,21.4,16.6,7.5,15.7,4.8,0.2,87,61,43,30.30,30.06,11,5,0,0.00
2013-12-13,33.6,24.3,18.5,18.5,12.9,3.8,79,62,50,30.08,30.01,9,3,0,0.00
2013-12-14,33.6,30.4,25.3,32.8,26.4,18.2,98,85,71,30.06,29.47,4,0,0,0.11
2013-12-15,35.6,27.5,18.1,35.1,23.0,10.3,98,83,67,29.86,29.45,15,6,0,0.46
2013-12-16,26.2,19.9,14.5,19.3,11.6,8.5,86,70,53,30.00,29.85,8,2,0,0.00
2013-12-17,38.5,28.0,22.6,28.9,23.4,19.5,96,83,56,29.85,29.75,6,2,0,0.00
2013-12-18,31.3,25.9,19.8,22.2,19.6,15.7,85,77,65,30.01,29.86,10,4,0,0.00
2013-12-19,48.2,36.3,22.8,33.0,25.9,17.9,82,67,49,29.94,29.85,6,2,0,0.30
2013-12-20,52.9,46.2,39.2,48.5,38.1,28.5,93,74,55,29.85,29.71,7,2,0,0.02
2013-12-21,59.5,56.2,53.2,58.6,54.2,47.2,97,93,80,29.71,29.46,6,3,0,1.22
2013-12-22,66.7,58.6,49.5,59.1,52.5,42.0,97,80,70,29.81,29.35,13,5,0,0.27
2013-12-23,47.7,36.4,29.3,44.5,30.0,19.5,93,78,64,30.12,29.80,9,4,0,0.07
2013-12-24,29.8,21.1,11.7,22.1,13.1,5.9,86,71,56,30.35,30.06,10,4,0,0.00
2013-12-25,27.9,18.7,7.5,22.4,11.8,3.7,91,75,54,30.34,30.04,6,1,0,0.00
2013-12-26,39.2,29.6,21.9,27.5,21.7,14.9,92,74,47,30.18,29.94,11,3,0,0.04
2013-12-27,41.4,32.0,20.5,28.2,22.8,15.0,81,69,56,30.20,30.08,7,2,0,0.07
2013-12-28,51.8,40.7,32.5,32.7,28.3,23.1,69,61,47,30.08,29.88,7,3,0,0.00
2013-12-29,41.4,39.2,36.1,40.2,34.6,25.7,97,84,56,29.87,29.55,11,2,0,0.41
2013-12-30,37.8,23.8,16.5,33.4,18.7,12.3,90,81,69,30.06,29.70,8,3,0,0.00
2013-12-31,23.4,21.5,18.1,19.8,14.9,9.8,90,76,59,30.17,29.93,10,3,0,0.02
2014-1-1,31.8,25.4,21.0,22.2,19.4,16.1,84,78,67,30.20,29.93,4,1,0,0.01
2014-1-2,30.9,22.1,10.6,25.1,18.0,5.0,89,84,77,29.93,29.56,8,3,0,0.00